Terminal Aerodrome Forecast
Issued by NWS Indianapolis, IN

Home | Current Version | Previous Version | Text Only | Print | Product List | Glossary On
Versions: 1 2 3 4 5 6 7 8 9 10 11 12 13 14 15 16 17 18 19 20 21
832
FTUS43 KIND 261506 AAA
TAFIND
TAF AMD
KIND 261506Z 2615/2718 19013G21KT P6SM SCT040 SCT250
     FM270300 15013KT P6SM FEW045 SCT130 WS020/18045KT
     FM270600 17013G21KT P6SM SCT045 OVC080
     FM270900 18012G20KT 5SM SHRA VCTS OVC015CB
     FM271200 22014KT 6SM -SHRA OVC010=

USA.gov is the U.S. government's official web portal to all federal, state and local government web resources and services.